Time;durP1;ratioP1;P1;durP2;ratioP2;P2;SDS_P1;SDS_P2;PMS_P1;PMS_P2;Temp;Humidity;BMP_temperature;BMP_pressure;BME280_temperature;BME280_humidity;BME280_pressure;Samples;Min_cycle;Max_cycle;Signal;HPM_P1;HPM_P2
2022/12/29 00:02:48;;;;;;;133.10;89.35;;;;;;;;;;5033122;28;20040;-69
2022/12/29 00:05:57;;;;;;;131.60;90.13;;;12.20;99.90;;;;;;5033258;28;20041;-69
2022/12/29 00:09:01;;;;;;;134.20;95.20;;;;;;;;;;5033432;28;20117;-69
2022/12/29 00:12:05;;;;;;;144.48;95.57;;;12.00;99.90;;;;;;5033004;28;20044;-69
2022/12/29 00:18:32;;;;;;;134.95;88.55;;;;;;;;;;5033186;28;20044;-69
2022/12/29 00:35:10;;;;;;;111.50;79.90;;;12.00;99.90;;;;;;5043260;28;20400;-69
2022/12/29 00:45:00;;;;;;;103.65;72.38;;;;;;;;;;5043438;28;20500;-69
2022/12/29 00:48:04;;;;;;;112.53;75.15;;;;;;;;;;5031705;28;20056;-69
2022/12/29 00:51:08;;;;;;;97.30;70.68;;;13.30;99.90;;;;;;5031571;28;20049;-69
2022/12/29 00:54:13;;;;;;;102.88;70.22;;;;;;;;;;5032782;28;20048;-69
2022/12/29 00:57:17;;;;;;;104.93;74.40;;;;;;;;;;5042904;28;20080;-69
2022/12/29 01:00:22;;;;;;;103.50;72.47;;;;;;;;;;5032461;28;20041;-69
2022/12/29 01:03:26;;;;;;;103.68;70.00;;;;;;;;;;5031694;28;20040;-69
2022/12/29 01:06:31;;;;;;;110.40;74.38;;;13.50;99.90;;;;;;5032240;28;20045;-69
2022/12/29 01:13:01;;;;;;;110.85;73.57;;;;;;;;;;5042268;28;20689;-69
2022/12/29 01:16:06;;;;;;;103.63;72.07;;;;;;;;;;5031980;28;20037;-69
2022/12/29 01:19:09;;;;;;;104.28;70.57;;;12.90;99.90;;;;;;5031931;28;20045;-67
2022/12/29 01:22:14;;;;;;;102.78;69.30;;;;;;;;;;5031774;28;20401;-69
2022/12/29 01:25:18;;;;;;;97.30;63.80;;;;;;;;;;5042514;28;20103;-69
2022/12/29 01:28:22;;;;;;;98.88;67.80;;;10.10;99.90;;;;;;5031641;28;20394;-69
2022/12/29 01:31:26;;;;;;;101.88;67.82;;;;;;;;;;5042359;28;20496;-68
2022/12/29 01:34:31;;;;;;;91.47;64.40;;;;;;;;;;5031109;28;20056;-69
2022/12/29 01:37:36;;;;;;;95.43;64.15;;;12.00;99.90;;;;;;5031599;28;20057;-69
2022/12/29 01:40:44;;;;;;;95.35;64.60;;;12.00;99.90;;;;;;5042402;28;20045;-69
2022/12/29 01:43:53;;;;;;;91.07;62.08;;;12.10;99.90;;;;;;5041968;28;20393;-69
2022/12/29 01:46:59;;;;;;;92.40;61.30;;;;;;;;;;5042330;28;20226;-69
2022/12/29 01:50:36;;;;;;;86.53;57.38;;;12.10;99.90;;;;;;5031595;28;20044;-69
2022/12/29 01:53:40;;;;;;;86.40;56.53;;;;;;;;;;5041834;28;20060;-69
2022/12/29 01:56:45;;;;;;;81.93;54.85;;;11.90;99.90;;;;;;5030303;28;20061;-69
2022/12/29 02:00:01;;;;;;;82.80;57.15;;;12.60;99.90;;;;;;5030423;28;20112;-69
2022/12/29 02:03:20;;;;;;;85.80;53.53;;;13.50;99.90;;;;;;5031166;28;20048;-69
2022/12/29 02:06:31;;;;;;;72.28;46.50;;;11.50;99.90;;;;;;5031429;28;20048;-69
2022/12/29 02:09:35;;;;;;;68.13;45.45;;;12.30;99.90;;;;;;5030548;28;20052;-69
2022/12/29 02:12:40;;;;;;;72.40;46.25;;;12.20;99.90;;;;;;5029583;28;20060;-69
2022/12/29 02:16:02;;;;;;;65.20;44.42;;;12.40;99.90;;;;;;5031290;28;20052;-69
2022/12/29 02:19:37;;;;;;;52.40;38.42;;;16.30;99.90;;;;;;5031270;28;20064;-69
2022/12/29 02:22:50;;;;;;;58.08;36.90;;;12.90;99.90;;;;;;5030069;28;20535;-69
2022/12/29 02:26:12;;;;;;;53.22;35.50;;;12.10;99.90;;;;;;5030121;28;20060;-69
2022/12/29 02:29:52;;;;;;;57.97;36.38;;;12.00;99.90;;;;;;5041590;28;20052;-69
2022/12/29 02:33:13;;;;;;;57.42;36.53;;;11.90;99.90;;;;;;5041260;28;20052;-69
2022/12/29 02:36:29;;;;;;;48.92;33.28;;;12.60;99.90;;;;;;5041315;28;20049;-69
2022/12/29 02:39:55;;;;;;;54.80;33.80;;;12.00;99.90;;;;;;5030035;28;20053;-69
2022/12/29 02:43:09;;;;;;;50.75;35.08;;;11.80;99.90;;;;;;5030888;28;20060;-68
2022/12/29 02:46:21;;;;;;;53.05;33.17;;;11.70;99.90;;;;;;5030946;28;20048;-69
2022/12/29 02:49:55;;;;;;;50.35;33.70;;;11.60;99.90;;;;;;5030646;28;20041;-68
2022/12/29 02:53:02;;;;;;;49.15;33.70;;;11.50;99.90;;;;;;5029839;28;20048;-69
2022/12/29 02:56:07;;;;;;;50.33;35.80;;;;;;;;;;5030613;28;20036;-69
2022/12/29 02:59:12;;;;;;;50.47;33.78;;;11.60;99.90;;;;;;5030442;28;20052;-69
2022/12/29 03:02:41;;;;;;;57.05;35.58;;;11.60;99.90;;;;;;5041137;28;20041;-69
2022/12/29 03:06:11;;;;;;;52.53;35.72;;;12.60;99.90;;;;;;5029593;28;20048;-69
2022/12/29 03:09:36;;;;;;;56.78;38.17;;;11.90;99.90;;;;;;5031087;28;20048;-69
2022/12/29 03:16:40;;;;;;;55.95;39.13;;;11.40;99.90;;;;;;5030695;28;20040;-67
2022/12/29 03:19:49;;;;;;;62.10;40.05;;;11.10;99.90;;;;;;5030387;28;20060;-68
2022/12/29 03:23:00;;;;;;;65.13;43.10;;;11.30;99.90;;;;;;5030219;28;20044;-68
2022/12/29 03:26:10;;;;;;;62.50;42.30;;;11.20;99.90;;;;;;5032333;28;20049;-68
2022/12/29 03:29:16;;;;;;;64.20;43.17;;;10.30;99.90;;;;;;5044893;28;20040;-67
2022/12/29 03:32:26;;;;;;;55.88;40.58;;;10.60;99.90;;;;;;5032985;28;20041;-69
2022/12/29 03:35:35;;;;;;;59.90;41.35;;;11.30;99.90;;;;;;5044542;28;20037;-69
2022/12/29 03:38:59;;;;;;;56.83;40.35;;;11.60;99.90;;;;;;5033159;28;20044;-68
2022/12/29 03:42:09;;;;;;;60.50;40.10;;;11.40;99.90;;;;;;5044713;28;20121;-69
2022/12/29 03:45:14;;;;;;;64.80;40.45;;;11.70;99.90;;;;;;5033067;28;20044;-69
2022/12/29 03:48:18;;;;;;;58.53;39.42;;;11.60;99.90;;;;;;5044454;28;20040;-69
2022/12/29 03:51:23;;;;;;;60.33;38.88;;;11.80;99.90;;;;;;5044585;28;20044;-69
2022/12/29 03:54:27;;;;;;;59.08;39.22;;;7.80;99.90;;;;;;5032644;28;20056;-69
2022/12/29 03:57:31;;;;;;;58.22;40.05;;;11.40;99.90;;;;;;5032377;28;20065;-69
2022/12/29 04:00:38;;;;;;;56.83;39.60;;;11.40;99.90;;;;;;5032694;28;20057;-69
2022/12/29 04:03:43;;;;;;;61.83;39.22;;;11.40;99.90;;;;;;5033672;28;20044;-69
2022/12/29 04:06:47;;;;;;;57.60;39.30;;;;;;;;;;5032705;28;20064;-69
2022/12/29 04:09:51;;;;;;;55.03;36.05;;;11.30;99.90;;;;;;5033357;28;20045;-69
2022/12/29 04:12:59;;;;;;;48.63;36.10;;;11.40;99.90;;;;;;5043996;28;20048;-69
2022/12/29 04:16:04;;;;;;;54.42;37.90;;;11.30;99.90;;;;;;5032462;28;20066;-69
2022/12/29 04:19:08;;;;;;;54.50;36.88;;;11.30;99.90;;;;;;5033233;28;20045;-69
2022/12/29 04:22:13;;;;;;;53.67;35.03;;;11.40;99.90;;;;;;5033509;28;20048;-69
2022/12/29 04:25:17;;;;;;;48.58;33.97;;;11.20;99.90;;;;;;5043666;28;20044;-69
2022/12/29 04:28:23;;;;;;;58.35;34.80;;;11.10;99.90;;;;;;5032250;28;20044;-69
2022/12/29 04:31:53;;;;;;;53.53;35.55;;;;;;;;;;5032941;28;20041;-69
2022/12/29 04:34:57;;;;;;;51.53;33.38;;;11.10;99.90;;;;;;5032238;28;20393;-69
2022/12/29 04:38:02;;;;;;;53.00;33.35;;;10.90;99.90;;;;;;5042768;28;20048;-69
2022/12/29 04:41:06;;;;;;;48.63;34.00;;;10.80;99.90;;;;;;5031898;28;20056;-69
2022/12/29 04:44:13;;;;;;;53.30;32.53;;;;;;;;;;5043347;28;20393;-69
2022/12/29 04:47:35;;;;;;;49.75;32.72;;;;;;;;;;5032461;28;20346;-69
2022/12/29 04:51:04;;;;;;;44.15;31.30;;;;;;;;;;5031571;28;20539;-69
2022/12/29 04:54:15;;;;;;;51.50;32.25;;;;;;;;;;5032286;28;20049;-69
2022/12/29 04:57:21;;;;;;;47.30;30.20;;;11.00;99.90;;;;;;5031365;28;20053;-69
2022/12/29 05:00:29;;;;;;;48.63;30.17;;;11.20;99.90;;;;;;5042832;28;20048;-69
2022/12/29 05:03:33;;;;;;;48.28;31.60;;;11.20;99.90;;;;;;5031581;28;20049;-69
2022/12/29 05:06:37;;;;;;;52.90;31.25;;;11.00;99.90;;;;;;5043181;28;20045;-69
2022/12/29 05:09:41;;;;;;;44.97;31.10;;;11.50;99.90;;;;;;5032450;28;20504;-69
2022/12/29 05:12:45;;;;;;;46.42;29.50;;;;;;;;;;5031012;28;20048;-69
2022/12/29 05:15:52;;;;;;;46.22;31.20;;;11.40;99.90;;;;;;5031162;28;20507;-69
2022/12/29 05:18:56;;;;;;;46.78;31.63;;;9.50;99.90;;;;;;5042407;28;20397;-69
2022/12/29 05:22:01;;;;;;;50.22;32.20;;;;;;;;;;5042596;28;20045;-69
2022/12/29 05:25:06;;;;;;;48.30;31.90;;;;;;;;;;5031022;28;20052;-69
2022/12/29 05:28:17;;;;;;;50.75;31.65;;;;;;;;;;5042647;28;20405;-69
2022/12/29 05:31:27;;;;;;;49.95;32.13;;;11.70;99.90;;;;;;5031556;28;20044;-69
2022/12/29 05:34:31;;;;;;;49.80;29.60;;;;;;;;;;5042098;28;20405;-69
2022/12/29 05:37:35;;;;;;;47.38;30.65;;;;;;;;;;5042471;28;20053;-69
2022/12/29 05:40:40;;;;;;;48.95;32.28;;;;;;;;;;5042389;28;20056;-69
2022/12/29 05:43:55;;;;;;;53.30;35.08;;;12.20;99.90;;;;;;5042170;28;20064;-69
2022/12/29 05:47:17;;;;;;;60.80;36.95;;;11.40;99.90;;;;;;5030251;28;20397;-67
2022/12/29 05:50:48;;;;;;;55.70;35.45;;;11.30;99.90;;;;;;5031368;28;20043;-67
2022/12/29 05:53:54;;;;;;;70.10;38.88;;;;;;;;;;5041848;28;20072;-68
2022/12/29 05:56:59;;;;;;;52.90;36.30;;;11.20;99.90;;;;;;5041621;28;20052;-68
2022/12/29 06:00:07;;;;;;;59.08;38.33;;;11.10;99.90;;;;;;5030582;28;20500;-68
2022/12/29 06:03:18;;;;;;;59.00;38.17;;;11.20;99.90;;;;;;5031083;28;20045;-68
2022/12/29 06:06:22;;;;;;;54.50;36.72;;;;;;;;;;5031216;28;20036;-68
2022/12/29 06:09:27;;;;;;;64.97;38.80;;;;;;;;;;5031067;28;20405;-68
2022/12/29 06:12:32;;;;;;;64.50;38.53;;;;;;;;;;5041315;28;20053;-68
2022/12/29 06:15:36;;;;;;;59.00;38.33;;;11.90;99.90;;;;;;5041582;28;20405;-68
2022/12/29 06:18:43;;;;;;;53.63;36.28;;;11.40;99.90;;;;;;5030905;28;20127;-68
2022/12/29 06:21:47;;;;;;;57.88;36.63;;;11.30;99.90;;;;;;5029891;28;20041;-68
2022/12/29 06:24:51;;;;;;;57.97;36.45;;;11.30;99.90;;;;;;5030006;28;20040;-69
2022/12/29 06:27:55;;;;;;;54.05;33.65;;;11.30;99.90;;;;;;5030001;28;20052;-68
2022/12/29 06:31:01;;;;;;;50.38;31.35;;;11.40;99.90;;;;;;5031231;28;20064;-68
2022/12/29 06:34:06;;;;;;;49.38;27.70;;;11.40;99.90;;;;;;5030010;28;20056;-68
2022/12/29 06:37:10;;;;;;;47.08;28.70;;;11.50;99.90;;;;;;5041436;28;20540;-68
2022/12/29 06:40:14;;;;;;;44.40;27.55;;;;;;;;;;5030851;28;20049;-68
2022/12/29 06:43:54;;;;;;;39.33;23.90;;;;;;;;;;5031676;28;20068;-68
2022/12/29 06:47:22;;;;;;;35.88;23.52;;;;;;;;;;5029004;28;20040;-68
2022/12/29 06:50:26;;;;;;;41.80;25.00;;;;;;;;;;5040693;28;20044;-68
2022/12/29 06:53:31;;;;;;;37.33;22.00;;;11.70;99.90;;;;;;5029719;28;20052;-67
2022/12/29 06:56:35;;;;;;;35.28;19.92;;;;;;;;;;5029516;28;20535;-68
2022/12/29 06:59:39;;;;;;;26.25;18.45;;;;;;;;;;5030641;28;20044;-68
2022/12/29 07:02:43;;;;;;;27.35;16.80;;;;;;;;;;5034279;28;20044;-68
2022/12/29 07:05:48;;;;;;;35.53;19.08;;;;;;;;;;5033164;28;20044;-70
2022/12/29 07:08:54;;;;;;;27.05;17.88;;;;;;;;;;5033320;28;20040;-68
2022/12/29 07:11:58;;;;;;;34.55;17.40;;;12.10;99.90;;;;;;5034093;28;20504;-68
2022/12/29 07:15:03;;;;;;;32.95;17.55;;;;;;;;;;5034354;28;20076;-68
2022/12/29 07:18:07;;;;;;;31.90;18.15;;;12.30;99.90;;;;;;5034033;28;20044;-68
2022/12/29 07:21:11;;;;;;;32.83;22.75;;;;;;;;;;5034008;28;20052;-68
2022/12/29 07:24:16;;;;;;;37.08;25.85;;;;;;;;;;5033862;28;20208;-67
2022/12/29 07:27:20;;;;;;;38.63;22.67;;;;;;;;;;5033495;28;20116;-68
2022/12/29 07:30:25;;;;;;;38.78;23.40;;;;;;;;;;5033863;28;20048;-69
2022/12/29 07:33:29;;;;;;;39.72;21.48;;;12.40;99.90;;;;;;5033654;28;20496;-68
2022/12/29 07:36:33;;;;;;;39.90;21.60;;;;;;;;;;5034018;28;20047;-68
2022/12/29 07:39:38;;;;;;;39.17;22.23;;;;;;;;;;5033336;28;20048;-67
2022/12/29 07:42:42;;;;;;;37.90;22.52;;;;;;;;;;5033600;28;20041;-67
2022/12/29 07:45:48;;;;;;;43.50;25.85;;;12.90;99.90;;;;;;5044189;28;20044;-69
2022/12/29 07:48:55;;;;;;;44.67;26.55;;;;;;;;;;5033423;28;20048;-69
2022/12/29 07:51:58;;;;;;;43.40;25.80;;;12.30;99.90;;;;;;5043775;28;20049;-72
2022/12/29 07:55:02;;;;;;;46.10;27.23;;;15.30;99.90;;;;;;5032129;28;20052;-70
2022/12/29 07:58:07;;;;;;;39.28;25.10;;;12.80;99.90;;;;;;5033282;28;20484;-67
2022/12/29 08:01:12;;;;;;;38.38;27.25;;;;;;;;;;5032566;28;20048;-69
2022/12/29 08:04:16;;;;;;;39.85;25.55;;;13.00;99.90;;;;;;5032996;28;20032;-68
2022/12/29 08:07:20;;;;;;;43.08;26.05;;;;;;;;;;5032923;28;20052;-69
2022/12/29 08:10:24;;;;;;;40.10;25.40;;;13.20;99.90;;;;;;5032862;28;20116;-69
2022/12/29 08:13:28;;;;;;;41.13;26.73;;;14.80;99.90;;;;;;5032916;28;20048;-70
2022/12/29 08:16:32;;;;;;;40.72;26.45;;;12.70;99.90;;;;;;5032106;28;20052;-69
2022/12/29 08:19:37;;;;;;;41.92;27.58;;;14.00;99.90;;;;;;5032729;28;20045;-68
2022/12/29 08:22:41;;;;;;;51.63;31.15;;;13.90;99.90;;;;;;5032776;28;20049;-67
2022/12/29 08:25:45;;;;;;;45.88;29.98;;;14.40;99.90;;;;;;5032659;28;20040;-67
2022/12/29 08:28:49;;;;;;;43.40;28.30;;;14.30;99.90;;;;;;5032725;28;20386;-67
2022/12/29 08:31:53;;;;;;;45.15;29.95;;;14.60;99.90;;;;;;5033025;28;20045;-68
2022/12/29 08:34:57;;;;;;;47.15;29.17;;;14.80;99.90;;;;;;5032673;28;20073;-67
2022/12/29 08:38:01;;;;;;;53.92;27.08;;;15.00;99.90;;;;;;5032786;28;20037;-68
2022/12/29 08:41:04;;;;;;;63.97;37.97;;;15.10;99.90;;;;;;5032367;28;20040;-69
2022/12/29 08:44:12;;;;;;;68.38;41.72;;;15.20;99.90;;;;;;5032339;28;20080;-69
2022/12/29 08:47:16;;;;;;;62.88;37.88;;;15.40;99.90;;;;;;5043177;28;20044;-69
2022/12/29 08:50:20;;;;;;;50.63;31.75;;;15.50;99.90;;;;;;5032567;28;20040;-69
2022/12/29 08:53:23;;;;;;;40.83;27.00;;;15.60;99.90;;;;;;5032124;28;20060;-70
2022/12/29 08:56:28;;;;;;;42.65;25.45;;;15.70;99.90;;;;;;5032044;28;20052;-68
2022/12/29 08:59:34;;;;;;;34.75;23.27;;;15.90;99.90;;;;;;5041629;28;20509;-68
2022/12/29 09:02:38;;;;;;;39.58;20.55;;;16.00;99.90;;;;;;5029906;28;20425;-68
2022/12/29 09:05:42;;;;;;;34.67;20.48;;;16.10;99.90;;;;;;5031703;28;20053;-68
2022/12/29 09:08:46;;;;;;;35.85;21.15;;;16.20;99.90;;;;;;5031672;28;20508;-68
2022/12/29 09:11:50;;;;;;;43.78;22.55;;;16.20;99.90;;;;;;5031292;28;20061;-68
2022/12/29 09:14:53;;;;;;;31.50;21.50;;;16.30;99.90;;;;;;5031962;28;20060;-68
2022/12/29 09:17:58;;;;;;;39.15;22.23;;;16.30;99.90;;;;;;5032155;28;20064;-68
2022/12/29 09:21:04;;;;;;;31.10;19.50;;;16.40;99.90;;;;;;5031884;28;20052;-68
2022/12/29 09:24:08;;;;;;;46.33;22.20;;;16.50;99.90;;;;;;5031363;28;20044;-68
2022/12/29 09:27:12;;;;;;;25.73;18.83;;;16.50;99.90;;;;;;5031492;28;20500;-68
2022/12/29 09:30:16;;;;;;;37.47;20.60;;;16.60;99.90;;;;;;5031167;28;20044;-68
2022/12/29 09:33:20;;;;;;;34.90;20.05;;;16.90;99.90;;;;;;5032112;28;20053;-68
2022/12/29 09:36:23;;;;;;;30.58;18.95;;;17.10;99.90;;;;;;5031732;28;20056;-68
2022/12/29 09:39:27;;;;;;;31.33;18.02;;;17.20;99.90;;;;;;5031712;28;20061;-69
2022/12/29 09:42:55;;;;;;;30.38;17.50;;;17.30;99.90;;;;;;5029247;28;20052;-68
2022/12/29 09:46:25;;;;;;;30.23;16.73;;;17.50;99.90;;;;;;5030709;28;20052;-68
2022/12/29 09:49:39;;;;;;;26.58;15.68;;;17.50;99.90;;;;;;5030874;28;20060;-68
2022/12/29 09:52:55;;;;;;;20.13;14.45;;;17.70;99.90;;;;;;5030584;28;20394;-68
2022/12/29 09:56:01;;;;;;;20.20;13.13;;;17.90;99.90;;;;;;5031034;28;20120;-68
2022/12/29 09:59:15;;;;;;;24.35;12.23;;;17.70;99.90;;;;;;5030831;28;20044;-69
2022/12/29 10:02:40;;;;;;;17.85;11.07;;;17.70;99.90;;;;;;5030933;28;20049;-68
2022/12/29 10:06:15;;;;;;;21.48;11.05;;;17.50;99.90;;;;;;5031241;28;20052;-68
2022/12/29 10:10:01;;;;;;;21.52;12.02;;;17.20;99.90;;;;;;5031112;28;20527;-69
2022/12/29 10:13:20;;;;;;;19.20;11.63;;;17.30;99.90;;;;;;5030728;28;20504;-68
2022/12/29 10:16:30;;;;;;;20.10;11.10;;;17.50;99.90;;;;;;5030986;28;20049;-68
2022/12/29 10:19:49;;;;;;;23.27;12.18;;;17.40;99.90;;;;;;5030747;28;20048;-68
2022/12/29 10:23:13;;;;;;;19.63;11.55;;;17.30;99.90;;;;;;5030856;28;20049;-68
2022/12/29 10:26:27;;;;;;;21.08;12.30;;;17.20;99.90;;;;;;5031214;28;20413;-68
2022/12/29 10:29:37;;;;;;;19.02;11.32;;;17.20;99.90;;;;;;5030308;28;20044;-69
2022/12/29 10:32:56;;;;;;;18.30;11.73;;;17.00;99.90;;;;;;5030439;28;20041;-69
2022/12/29 10:36:23;;;;;;;19.83;11.93;;;17.00;99.90;;;;;;5031113;28;20151;-68
2022/12/29 10:39:33;;;;;;;23.33;11.88;;;16.90;99.90;;;;;;5033972;28;20140;-68
2022/12/29 10:42:45;;;;;;;17.13;11.05;;;16.70;99.90;;;;;;5030223;28;20036;-68
2022/12/29 10:45:52;;;;;;;20.75;12.57;;;16.70;99.90;;;;;;5040685;28;20049;-68
2022/12/29 10:48:56;;;;;;;21.23;11.75;;;17.00;99.90;;;;;;5041021;28;20050;-68
2022/12/29 10:52:03;;;;;;;16.27;9.20;;;17.10;99.90;;;;;;5030112;28;20037;-68
2022/12/29 10:55:19;;;;;;;16.98;9.43;;;17.10;99.90;;;;;;5030481;28;20056;-68
2022/12/29 10:58:24;;;;;;;17.13;8.40;;;17.30;99.90;;;;;;5030624;28;20076;-68
2022/12/29 11:01:39;;;;;;;15.82;7.00;;;17.70;99.90;;;;;;5030274;28;20048;-68
2022/12/29 11:04:52;;;;;;;9.65;3.58;;;18.00;99.90;;;;;;5029773;28;20036;-69
2022/12/29 11:08:01;;;;;;;12.90;3.47;;;18.10;99.90;;;;;;5030391;28;20056;-68
2022/12/29 11:11:09;;;;;;;19.70;4.50;;;18.10;99.90;;;;;;5030340;28;20121;-68
2022/12/29 11:14:19;;;;;;;8.10;3.42;;;18.20;99.90;;;;;;5040685;28;20060;-68
2022/12/29 11:17:23;;;;;;;11.15;3.83;;;18.30;99.90;;;;;;5030359;28;20044;-68
2022/12/29 11:20:38;;;;;;;8.93;3.92;;;18.40;99.90;;;;;;5030511;28;20414;-68
2022/12/29 11:23:42;;;;;;;10.90;3.80;;;18.40;99.90;;;;;;5041068;28;20044;-68
2022/12/29 11:26:48;;;;;;;8.63;3.60;;;18.30;99.90;;;;;;5040943;28;20052;-69
2022/12/29 11:29:53;;;;;;;8.43;3.53;;;18.10;99.90;;;;;;5029968;28;20048;-70
2022/12/29 11:33:02;;;;;;;17.27;4.10;;;18.10;99.90;;;;;;5030102;28;20223;-70
2022/12/29 11:36:20;;;;;;;10.40;3.78;;;18.20;99.90;;;;;;5030082;28;20045;-69
2022/12/29 11:39:33;;;;;;;9.70;3.22;;;18.20;99.90;;;;;;5029013;28;20508;-70
2022/12/29 11:42:47;;;;;;;7.50;3.55;;;18.30;99.90;;;;;;5029851;28;20053;-70
2022/12/29 11:45:53;;;;;;;10.75;4.60;;;18.30;99.90;;;;;;5031287;28;20499;-70
2022/12/29 11:49:00;;;;;;;30.25;10.75;;;18.30;99.90;;;;;;5033343;28;20049;-69
2022/12/29 11:52:04;;;;;;;19.98;7.03;;;18.30;99.90;;;;;;5033096;28;20045;-70
2022/12/29 11:55:20;;;;;;;17.98;7.72;;;18.30;99.90;;;;;;5033166;28;20052;-69
2022/12/29 11:58:33;;;;;;;17.25;6.03;;;18.30;99.90;;;;;;5033395;28;20052;-70
2022/12/29 12:01:38;;;;;;;9.77;4.47;;;18.30;99.90;;;;;;5033191;28;20044;-70
2022/12/29 12:04:43;;;;;;;10.85;4.15;;;18.20;99.90;;;;;;5033232;28;20045;-69
2022/12/29 12:07:54;;;;;;;12.60;2.95;;;18.30;99.90;;;;;;5033079;28;20231;-68
2022/12/29 12:11:04;;;;;;;11.00;3.58;;;18.20;99.90;;;;;;5033115;28;20587;-68
2022/12/29 12:14:23;;;;;;;8.73;3.72;;;18.20;99.90;;;;;;5032088;28;20048;-70
2022/12/29 12:18:05;;;;;;;8.40;3.50;;;18.10;99.90;;;;;;5032085;28;20064;-69
2022/12/29 12:21:19;;;;;;;7.82;3.55;;;18.10;99.90;;;;;;5031213;28;20045;-69
2022/12/29 12:24:38;;;;;;;9.75;3.78;;;18.10;99.90;;;;;;5032232;28;20048;-69
2022/12/29 12:28:21;;;;;;;10.35;3.72;;;18.10;99.90;;;;;;5032889;28;20052;-69
2022/12/29 12:31:49;;;;;;;12.02;4.47;;;18.10;99.90;;;;;;5032938;28;20052;-69
2022/12/29 12:34:53;;;;;;;12.98;5.07;;;18.00;99.90;;;;;;5032639;28;20044;-69
2022/12/29 12:38:00;;;;;;;8.85;3.88;;;18.00;99.90;;;;;;5033246;28;20044;-69
2022/12/29 12:41:44;;;;;;;15.90;4.15;;;18.00;99.90;;;;;;5032982;28;20048;-70
2022/12/29 12:45:21;;;;;;;12.45;5.57;;;18.00;99.90;;;;;;5032666;28;20493;-70
2022/12/29 12:48:25;;;;;;;10.05;3.65;;;17.90;99.90;;;;;;5032279;28;20049;-70
2022/12/29 12:51:57;;;;;;;10.23;3.45;;;17.90;99.90;;;;;;5032143;28;20045;-70
2022/12/29 12:55:10;;;;;;;9.85;3.30;;;17.90;99.90;;;;;;5032102;28;20060;-70
2022/12/29 12:58:21;;;;;;;7.88;3.65;;;17.90;99.90;;;;;;5031277;28;20040;-70
2022/12/29 13:01:39;;;;;;;10.63;3.67;;;17.90;99.90;;;;;;5032313;28;20056;-68
2022/12/29 13:05:15;;;;;;;10.85;3.72;;;17.80;99.90;;;;;;5032004;28;20041;-68
2022/12/29 13:08:35;;;;;;;7.10;2.88;;;17.70;99.90;;;;;;5031898;28;20502;-68
2022/12/29 13:12:09;;;;;;;5.25;2.65;;;17.70;99.90;;;;;;5032183;28;20366;-67
2022/12/29 13:15:40;;;;;;;12.80;3.75;;;17.70;99.90;;;;;;5031704;28;20052;-68
2022/12/29 13:19:08;;;;;;;8.75;3.47;;;17.70;99.90;;;;;;5032227;28;20048;-68
2022/12/29 13:22:25;;;;;;;5.50;3.08;;;17.60;99.90;;;;;;5031841;28;20048;-68
2022/12/29 13:25:42;;;;;;;8.95;3.20;;;17.60;99.90;;;;;;5032102;28;20048;-68
2022/12/29 13:29:10;;;;;;;14.48;3.30;;;17.60;99.90;;;;;;5031908;28;20405;-67
2022/12/29 13:33:01;;;;;;;15.90;4.20;;;17.50;99.90;;;;;;5031835;28;20513;-67
2022/12/29 13:36:29;;;;;;;5.50;3.15;;;17.50;99.90;;;;;;5009336;28;20212;-68
2022/12/29 13:39:45;;;;;;;7.10;2.78;;;17.50;99.90;;;;;;5013926;28;20044;-68
2022/12/29 13:42:51;;;;;;;10.70;3.42;;;17.50;99.90;;;;;;5031921;28;20393;-68
2022/12/29 13:46:10;;;;;;;10.75;3.85;;;17.50;99.90;;;;;;5031717;28;20048;-67
2022/12/29 13:49:18;;;;;;;9.30;3.40;;;17.50;99.90;;;;;;5031774;28;20044;-67
2022/12/29 13:53:06;;;;;;;16.15;3.90;;;17.50;99.90;;;;;;5031625;28;20048;-68
2022/12/29 13:56:20;;;;;;;8.77;3.22;;;17.50;99.90;;;;;;5009709;28;20188;-68
2022/12/29 13:59:48;;;;;;;8.90;2.75;;;17.50;99.90;;;;;;5031864;28;20045;-67
2022/12/29 14:03:21;;;;;;;10.40;3.53;;;17.40;99.90;;;;;;5031008;28;20037;-67
2022/12/29 14:06:28;;;;;;;13.43;3.92;;;17.40;99.90;;;;;;5031889;28;20493;-67
2022/12/29 14:09:48;;;;;;;5.93;3.00;;;17.40;99.90;;;;;;5031073;28;20057;-66
2022/12/29 14:13:02;;;;;;;7.30;2.80;;;17.30;99.90;;;;;;5031425;28;20398;-67
2022/12/29 14:16:10;;;;;;;8.55;3.58;;;17.30;99.90;;;;;;5030829;28;20060;-66
2022/12/29 14:19:31;;;;;;;12.07;4.15;;;17.30;99.90;;;;;;5031445;28;20049;-66
2022/12/29 14:22:54;;;;;;;8.32;3.40;;;17.30;99.90;;;;;;5031092;28;20072;-67
2022/12/29 14:25:58;;;;;;;11.75;3.95;;;17.30;99.90;;;;;;5030932;28;20045;-67
2022/12/29 14:29:23;;;;;;;6.93;4.07;;;17.20;99.90;;;;;;5031107;28;20052;-68
2022/12/29 14:32:28;;;;;;;9.43;3.13;;;17.20;99.90;;;;;;5030953;28;20044;-67
2022/12/29 14:35:41;;;;;;;12.95;3.88;;;17.10;99.90;;;;;;5030821;28;20052;-67
2022/12/29 14:38:47;;;;;;;10.63;2.95;;;17.10;99.90;;;;;;5031373;28;20044;-67
2022/12/29 14:42:10;;;;;;;11.52;3.38;;;17.00;99.90;;;;;;5030684;28;20060;-68
2022/12/29 14:45:14;;;;;;;5.82;2.55;;;17.00;99.90;;;;;;5029906;28;20040;-68
2022/12/29 14:48:43;;;;;;;10.95;3.90;;;17.00;99.90;;;;;;5029720;28;20512;-69
2022/12/29 14:51:48;;;;;;;6.93;3.05;;;16.90;99.90;;;;;;5030553;28;20032;-68
2022/12/29 14:55:19;;;;;;;13.65;3.85;;;16.90;99.90;;;;;;5030464;28;20052;-69
2022/12/29 14:58:32;;;;;;;14.10;4.00;;;16.90;99.90;;;;;;5030381;28;20468;-68
2022/12/29 15:01:52;;;;;;;12.65;3.75;;;16.80;99.90;;;;;;5030418;28;20052;-67
2022/12/29 15:05:01;;;;;;;8.85;3.67;;;16.80;99.90;;;;;;5030408;28;20041;-67
2022/12/29 15:08:07;;;;;;;15.02;4.45;;;16.70;99.90;;;;;;5041559;28;20390;-66
2022/12/29 15:11:22;;;;;;;13.35;3.33;;;16.70;99.90;;;;;;5029667;28;20072;-66
2022/12/29 15:14:39;;;;;;;21.35;4.82;;;16.60;99.90;;;;;;5030525;28;20055;-66
2022/12/29 15:17:43;;;;;;;16.83;4.60;;;16.60;99.90;;;;;;5030434;28;20041;-66
2022/12/29 15:20:55;;;;;;;13.10;4.70;;;16.50;99.90;;;;;;5031327;28;20041;-66
2022/12/29 15:23:59;;;;;;;18.23;4.78;;;16.50;99.90;;;;;;5034124;28;20104;-65
2022/12/29 15:27:05;;;;;;;11.85;4.70;;;16.40;99.90;;;;;;5034122;28;20401;-67
2022/12/29 15:30:13;;;;;;;8.75;4.55;;;16.30;99.90;;;;;;5033998;28;20429;-66
2022/12/29 15:33:19;;;;;;;18.85;5.55;;;16.30;99.90;;;;;;5034082;28;20048;-68
2022/12/29 15:36:29;;;;;;;23.23;5.82;;;16.30;99.90;;;;;;5033957;28;20072;-67
2022/12/29 15:39:33;;;;;;;11.93;5.10;;;16.30;99.90;;;;;;5034080;28;20049;-66
2022/12/29 15:42:40;;;;;;;14.63;5.65;;;16.20;99.90;;;;;;5033701;28;20064;-67
2022/12/29 15:45:44;;;;;;;19.48;6.57;;;16.10;99.90;;;;;;5033397;28;20504;-66
2022/12/29 15:48:48;;;;;;;17.83;6.80;;;16.10;99.90;;;;;;5033445;28;20049;-66
2022/12/29 15:51:51;;;;;;;13.82;6.07;;;16.00;99.90;;;;;;5033714;28;20060;-66
2022/12/29 15:54:55;;;;;;;13.10;6.90;;;16.00;99.90;;;;;;5033501;28;20065;-65
2022/12/29 15:58:01;;;;;;;16.55;7.47;;;15.90;99.90;;;;;;5033262;28;20238;-67
2022/12/29 16:01:20;;;;;;;19.65;7.47;;;15.90;99.90;;;;;;5033398;28;20056;-66
2022/12/29 16:04:31;;;;;;;28.90;10.13;;;15.90;99.90;;;;;;5033420;28;20044;-66
2022/12/29 16:07:36;;;;;;;30.27;12.98;;;15.80;99.90;;;;;;5033007;28;20053;-67
2022/12/29 16:10:42;;;;;;;36.50;17.75;;;15.80;99.90;;;;;;5033010;28;20068;-69
2022/12/29 16:13:49;;;;;;;32.97;15.07;;;15.70;99.90;;;;;;5032952;28;20052;-69
2022/12/29 16:16:55;;;;;;;37.38;16.20;;;15.70;99.90;;;;;;5032751;28;20064;-70
2022/12/29 16:20:01;;;;;;;33.72;17.65;;;15.70;99.90;;;;;;5032994;28;20053;-68
2022/12/29 16:23:05;;;;;;;41.20;20.42;;;15.60;99.90;;;;;;5032977;28;20500;-69
2022/12/29 16:26:17;;;;;;;43.30;26.80;;;15.60;99.90;;;;;;5032713;28;20048;-68
2022/12/29 16:29:22;;;;;;;51.70;26.10;;;15.50;99.90;;;;;;5032929;28;20081;-69
2022/12/29 16:32:31;;;;;;;57.65;28.73;;;15.40;99.90;;;;;;5031359;28;20048;-68
2022/12/29 16:35:44;;;;;;;52.67;23.50;;;15.40;99.90;;;;;;5032870;28;20060;-70
2022/12/29 16:38:48;;;;;;;55.20;26.40;;;15.30;99.90;;;;;;5032783;28;20394;-69
2022/12/29 16:41:54;;;;;;;42.05;21.95;;;15.30;99.90;;;;;;5032770;28;20048;-70
2022/12/29 16:45:18;;;;;;;42.50;21.15;;;15.30;99.90;;;;;;5031724;28;20044;-71
2022/12/29 16:48:29;;;;;;;43.42;17.10;;;15.20;99.90;;;;;;5032467;28;20376;-69
2022/12/29 16:51:36;;;;;;;27.85;13.88;;;15.20;99.90;;;;;;5032444;28;20048;-71
2022/12/29 16:54:41;;;;;;;45.72;14.32;;;15.20;99.90;;;;;;5032391;28;20068;-72
2022/12/29 16:57:49;;;;;;;34.67;16.92;;;15.10;99.90;;;;;;5032503;28;20077;-72
2022/12/29 17:00:55;;;;;;;47.03;22.63;;;15.00;99.90;;;;;;5032240;28;20044;-71
2022/12/29 17:04:11;;;;;;;55.28;26.15;;;15.00;99.90;;;;;;5032038;28;20505;-71
2022/12/29 17:07:18;;;;;;;71.82;39.42;;;14.90;99.90;;;;;;5032302;28;20064;-69